sensor_id;sensor_type;location;lat;lon;timestamp;P1;durP1;ratioP1;P2;durP2;ratioP2
787;SDS011;16074;42.708;23.312;2023-11-22T00:00:58;37.50;;;32.63;;
787;SDS011;16074;42.708;23.312;2023-11-22T00:03:28;38.25;;;30.52;;
787;SDS011;16074;42.708;23.312;2023-11-22T00:05:56;39.47;;;35.22;;
787;SDS011;16074;42.708;23.312;2023-11-22T00:08:25;41.28;;;33.45;;
787;SDS011;16074;42.708;23.312;2023-11-22T00:10:53;40.05;;;31.80;;
787;SDS011;16074;42.708;23.312;2023-11-22T00:13:21;31.65;;;28.08;;
787;SDS011;16074;42.708;23.312;2023-11-22T00:15:50;34.40;;;30.73;;
787;SDS011;16074;42.708;23.312;2023-11-22T00:18:18;32.47;;;28.88;;
787;SDS011;16074;42.708;23.312;2023-11-22T00:20:48;39.10;;;29.85;;
787;SDS011;16074;42.708;23.312;2023-11-22T00:23:16;33.40;;;29.83;;
787;SDS011;16074;42.708;23.312;2023-11-22T00:25:45;35.95;;;31.70;;
787;SDS011;16074;42.708;23.312;2023-11-22T00:28:13;39.42;;;33.90;;
787;SDS011;16074;42.708;23.312;2023-11-22T00:30:41;45.00;;;37.80;;
787;SDS011;16074;42.708;23.312;2023-11-22T00:33:10;38.40;;;34.15;;
787;SDS011;16074;42.708;23.312;2023-11-22T00:35:38;50.13;;;37.53;;
787;SDS011;16074;42.708;23.312;2023-11-22T00:38:07;38.55;;;34.35;;
787;SDS011;16074;42.708;23.312;2023-11-22T00:40:36;39.78;;;33.58;;
787;SDS011;16074;42.708;23.312;2023-11-22T00:43:04;46.28;;;39.22;;
787;SDS011;16074;42.708;23.312;2023-11-22T00:45:32;52.03;;;41.63;;
787;SDS011;16074;42.708;23.312;2023-11-22T00:48:01;45.05;;;38.42;;
787;SDS011;16074;42.708;23.312;2023-11-22T00:50:30;48.25;;;40.90;;
787;SDS011;16074;42.708;23.312;2023-11-22T00:52:58;40.17;;;35.78;;
787;SDS011;16074;42.708;23.312;2023-11-22T00:55:28;40.10;;;33.58;;
787;SDS011;16074;42.708;23.312;2023-11-22T00:57:56;36.80;;;31.80;;
787;SDS011;16074;42.708;23.312;2023-11-22T01:00:30;35.90;;;32.00;;
787;SDS011;16074;42.708;23.312;2023-11-22T01:02:59;33.47;;;28.98;;
787;SDS011;16074;42.708;23.312;2023-11-22T01:05:27;33.38;;;29.60;;
787;SDS011;16074;42.708;23.312;2023-11-22T01:07:56;33.03;;;29.45;;
787;SDS011;16074;42.708;23.312;2023-11-22T01:10:24;34.70;;;29.90;;
787;SDS011;16074;42.708;23.312;2023-11-22T01:12:54;37.90;;;30.80;;
787;SDS011;16074;42.708;23.312;2023-11-22T01:15:22;45.30;;;35.40;;
787;SDS011;16074;42.708;23.312;2023-11-22T01:17:51;41.10;;;36.45;;
787;SDS011;16074;42.708;23.312;2023-11-22T01:20:20;45.55;;;35.85;;
787;SDS011;16074;42.708;23.312;2023-11-22T01:22:49;45.65;;;38.90;;
787;SDS011;16074;42.708;23.312;2023-11-22T01:25:18;43.70;;;37.20;;
787;SDS011;16074;42.708;23.312;2023-11-22T01:27:47;41.67;;;35.83;;
787;SDS011;16074;42.708;23.312;2023-11-22T01:30:16;38.75;;;32.90;;
787;SDS011;16074;42.708;23.312;2023-11-22T01:32:45;37.08;;;32.45;;
787;SDS011;16074;42.708;23.312;2023-11-22T01:35:14;32.65;;;29.00;;
787;SDS011;16074;42.708;23.312;2023-11-22T01:37:43;31.58;;;27.98;;
787;SDS011;16074;42.708;23.312;2023-11-22T01:40:11;30.40;;;27.17;;
787;SDS011;16074;42.708;23.312;2023-11-22T01:42:40;33.83;;;28.02;;
787;SDS011;16074;42.708;23.312;2023-11-22T01:45:08;29.73;;;26.00;;
787;SDS011;16074;42.708;23.312;2023-11-22T01:47:38;29.95;;;26.90;;
787;SDS011;16074;42.708;23.312;2023-11-22T01:50:07;31.48;;;27.30;;
787;SDS011;16074;42.708;23.312;2023-11-22T01:52:37;30.13;;;26.75;;
787;SDS011;16074;42.708;23.312;2023-11-22T01:55:06;31.20;;;26.10;;
787;SDS011;16074;42.708;23.312;2023-11-22T01:57:36;28.20;;;25.30;;
787;SDS011;16074;42.708;23.312;2023-11-22T02:00:05;26.92;;;23.52;;
787;SDS011;16074;42.708;23.312;2023-11-22T02:02:42;25.65;;;22.23;;
787;SDS011;16074;42.708;23.312;2023-11-22T02:05:11;25.55;;;22.17;;
787;SDS011;16074;42.708;23.312;2023-11-22T02:07:39;25.83;;;22.02;;
787;SDS011;16074;42.708;23.312;2023-11-22T02:10:09;23.05;;;20.65;;
787;SDS011;16074;42.708;23.312;2023-11-22T02:12:38;24.80;;;22.10;;
787;SDS011;16074;42.708;23.312;2023-11-22T02:15:07;24.90;;;20.27;;
787;SDS011;16074;42.708;23.312;2023-11-22T02:17:35;23.20;;;20.80;;
787;SDS011;16074;42.708;23.312;2023-11-22T02:20:06;22.15;;;19.48;;
787;SDS011;16074;42.708;23.312;2023-11-22T02:22:47;22.98;;;20.27;;
787;SDS011;16074;42.708;23.312;2023-11-22T02:25:16;22.58;;;19.23;;
787;SDS011;16074;42.708;23.312;2023-11-22T02:27:45;22.25;;;19.77;;
787;SDS011;16074;42.708;23.312;2023-11-22T02:30:14;25.83;;;21.15;;
787;SDS011;16074;42.708;23.312;2023-11-22T02:32:42;22.38;;;20.17;;
787;SDS011;16074;42.708;23.312;2023-11-22T02:35:12;24.05;;;21.58;;
787;SDS011;16074;42.708;23.312;2023-11-22T02:37:42;21.17;;;18.92;;
787;SDS011;16074;42.708;23.312;2023-11-22T02:40:14;24.70;;;22.15;;
787;SDS011;16074;42.708;23.312;2023-11-22T02:42:47;24.33;;;19.35;;
787;SDS011;16074;42.708;23.312;2023-11-22T02:45:16;21.67;;;18.55;;
787;SDS011;16074;42.708;23.312;2023-11-22T02:47:45;23.02;;;20.67;;
787;SDS011;16074;42.708;23.312;2023-11-22T02:50:14;22.98;;;20.55;;
787;SDS011;16074;42.708;23.312;2023-11-22T02:52:42;23.30;;;20.90;;
787;SDS011;16074;42.708;23.312;2023-11-22T02:55:10;22.60;;;19.75;;
787;SDS011;16074;42.708;23.312;2023-11-22T02:57:40;21.98;;;19.52;;
787;SDS011;16074;42.708;23.312;2023-11-22T03:00:09;24.02;;;20.08;;
787;SDS011;16074;42.708;23.312;2023-11-22T03:02:40;20.50;;;18.40;;
787;SDS011;16074;42.708;23.312;2023-11-22T03:05:09;20.85;;;18.75;;
787;SDS011;16074;42.708;23.312;2023-11-22T03:07:40;21.85;;;18.17;;
787;SDS011;16074;42.708;23.312;2023-11-22T03:10:09;22.73;;;18.70;;
787;SDS011;16074;42.708;23.312;2023-11-22T03:12:37;22.17;;;19.95;;
787;SDS011;16074;42.708;23.312;2023-11-22T03:15:07;25.08;;;21.50;;
787;SDS011;16074;42.708;23.312;2023-11-22T03:17:37;25.02;;;21.77;;
787;SDS011;16074;42.708;23.312;2023-11-22T03:20:06;26.80;;;22.05;;
787;SDS011;16074;42.708;23.312;2023-11-22T03:22:37;23.58;;;19.90;;
787;SDS011;16074;42.708;23.312;2023-11-22T03:25:07;26.92;;;22.35;;
787;SDS011;16074;42.708;23.312;2023-11-22T03:27:37;23.48;;;21.02;;
787;SDS011;16074;42.708;23.312;2023-11-22T03:30:08;28.45;;;22.15;;
787;SDS011;16074;42.708;23.312;2023-11-22T03:32:39;23.73;;;20.73;;
787;SDS011;16074;42.708;23.312;2023-11-22T03:35:07;26.85;;;21.25;;
787;SDS011;16074;42.708;23.312;2023-11-22T03:37:37;23.73;;;20.45;;
787;SDS011;16074;42.708;23.312;2023-11-22T03:40:06;23.00;;;20.60;;
787;SDS011;16074;42.708;23.312;2023-11-22T03:42:36;24.30;;;21.25;;
787;SDS011;16074;42.708;23.312;2023-11-22T03:45:05;25.98;;;22.25;;
787;SDS011;16074;42.708;23.312;2023-11-22T03:47:36;23.45;;;19.73;;
787;SDS011;16074;42.708;23.312;2023-11-22T03:50:05;25.40;;;22.25;;
787;SDS011;16074;42.708;23.312;2023-11-22T03:52:35;25.30;;;21.27;;
787;SDS011;16074;42.708;23.312;2023-11-22T03:55:03;26.02;;;20.58;;
787;SDS011;16074;42.708;23.312;2023-11-22T03:57:32;24.17;;;21.55;;
787;SDS011;16074;42.708;23.312;2023-11-22T04:00:00;25.77;;;21.08;;
787;SDS011;16074;42.708;23.312;2023-11-22T04:02:39;27.27;;;24.33;;
787;SDS011;16074;42.708;23.312;2023-11-22T04:05:09;26.73;;;23.98;;
787;SDS011;16074;42.708;23.312;2023-11-22T04:07:39;27.17;;;23.85;;
787;SDS011;16074;42.708;23.312;2023-11-22T04:10:08;26.63;;;22.65;;
787;SDS011;16074;42.708;23.312;2023-11-22T04:12:36;22.92;;;20.63;;
787;SDS011;16074;42.708;23.312;2023-11-22T04:15:05;28.00;;;22.50;;
787;SDS011;16074;42.708;23.312;2023-11-22T04:17:38;24.35;;;21.75;;
787;SDS011;16074;42.708;23.312;2023-11-22T04:20:08;31.58;;;28.13;;
787;SDS011;16074;42.708;23.312;2023-11-22T04:22:44;32.80;;;24.73;;
787;SDS011;16074;42.708;23.312;2023-11-22T04:25:12;26.20;;;22.30;;
787;SDS011;16074;42.708;23.312;2023-11-22T04:27:41;30.23;;;23.23;;
787;SDS011;16074;42.708;23.312;2023-11-22T04:30:10;26.73;;;24.02;;
787;SDS011;16074;42.708;23.312;2023-11-22T04:32:42;28.23;;;24.77;;
787;SDS011;16074;42.708;23.312;2023-11-22T04:35:11;31.65;;;26.38;;
787;SDS011;16074;42.708;23.312;2023-11-22T04:37:40;23.67;;;20.73;;
787;SDS011;16074;42.708;23.312;2023-11-22T04:40:09;26.67;;;22.50;;
787;SDS011;16074;42.708;23.312;2023-11-22T04:42:41;23.67;;;20.67;;
787;SDS011;16074;42.708;23.312;2023-11-22T04:45:09;27.40;;;23.13;;
787;SDS011;16074;42.708;23.312;2023-11-22T04:47:38;26.35;;;23.02;;
787;SDS011;16074;42.708;23.312;2023-11-22T04:50:08;26.10;;;23.10;;
787;SDS011;16074;42.708;23.312;2023-11-22T04:52:37;24.55;;;19.90;;
787;SDS011;16074;42.708;23.312;2023-11-22T04:55:06;38.30;;;26.77;;
787;SDS011;16074;42.708;23.312;2023-11-22T04:57:35;26.92;;;22.40;;
787;SDS011;16074;42.708;23.312;2023-11-22T05:00:03;28.48;;;23.90;;
787;SDS011;16074;42.708;23.312;2023-11-22T05:02:34;25.95;;;23.20;;
787;SDS011;16074;42.708;23.312;2023-11-22T05:05:03;27.83;;;24.98;;
787;SDS011;16074;42.708;23.312;2023-11-22T05:07:33;34.38;;;25.73;;
787;SDS011;16074;42.708;23.312;2023-11-22T05:10:01;32.38;;;28.90;;
787;SDS011;16074;42.708;23.312;2023-11-22T05:12:29;33.20;;;29.42;;
787;SDS011;16074;42.708;23.312;2023-11-22T05:14:58;30.83;;;23.45;;
787;SDS011;16074;42.708;23.312;2023-11-22T05:17:26;27.48;;;24.58;;
787;SDS011;16074;42.708;23.312;2023-11-22T05:19:55;29.92;;;23.80;;
787;SDS011;16074;42.708;23.312;2023-11-22T05:22:24;43.00;;;30.00;;
787;SDS011;16074;42.708;23.312;2023-11-22T05:24:53;37.13;;;26.77;;
787;SDS011;16074;42.708;23.312;2023-11-22T05:27:22;35.25;;;27.63;;
787;SDS011;16074;42.708;23.312;2023-11-22T05:29:51;31.52;;;28.23;;
787;SDS011;16074;42.708;23.312;2023-11-22T05:32:21;32.28;;;25.50;;
787;SDS011;16074;42.708;23.312;2023-11-22T05:34:49;34.35;;;26.77;;
787;SDS011;16074;42.708;23.312;2023-11-22T05:37:18;32.60;;;25.98;;
787;SDS011;16074;42.708;23.312;2023-11-22T05:39:47;30.63;;;26.45;;
787;SDS011;16074;42.708;23.312;2023-11-22T05:42:16;36.78;;;30.70;;
787;SDS011;16074;42.708;23.312;2023-11-22T05:44:45;30.88;;;27.33;;
787;SDS011;16074;42.708;23.312;2023-11-22T05:47:13;31.23;;;24.63;;
787;SDS011;16074;42.708;23.312;2023-11-22T05:49:45;29.90;;;26.70;;
787;SDS011;16074;42.708;23.312;2023-11-22T05:52:13;29.67;;;24.95;;
787;SDS011;16074;42.708;23.312;2023-11-22T05:54:41;32.55;;;24.67;;
787;SDS011;16074;42.708;23.312;2023-11-22T05:57:10;26.95;;;24.15;;
787;SDS011;16074;42.708;23.312;2023-11-22T05:59:39;25.85;;;23.23;;
787;SDS011;16074;42.708;23.312;2023-11-22T06:02:07;25.77;;;22.98;;
787;SDS011;16074;42.708;23.312;2023-11-22T06:04:36;25.67;;;22.25;;
787;SDS011;16074;42.708;23.312;2023-11-22T06:07:08;25.23;;;22.50;;
787;SDS011;16074;42.708;23.312;2023-11-22T06:09:36;26.83;;;21.63;;
787;SDS011;16074;42.708;23.312;2023-11-22T06:12:05;29.42;;;26.23;;
787;SDS011;16074;42.708;23.312;2023-11-22T06:14:33;31.23;;;27.23;;
787;SDS011;16074;42.708;23.312;2023-11-22T06:17:03;27.13;;;24.17;;
787;SDS011;16074;42.708;23.312;2023-11-22T06:19:31;34.20;;;28.40;;
787;SDS011;16074;42.708;23.312;2023-11-22T06:21:59;36.72;;;31.40;;
787;SDS011;16074;42.708;23.312;2023-11-22T06:24:28;41.20;;;32.42;;
787;SDS011;16074;42.708;23.312;2023-11-22T06:26:56;36.17;;;32.25;;
787;SDS011;16074;42.708;23.312;2023-11-22T06:29:24;41.47;;;32.40;;
787;SDS011;16074;42.708;23.312;2023-11-22T06:31:53;43.80;;;34.03;;
787;SDS011;16074;42.708;23.312;2023-11-22T06:34:22;39.53;;;33.83;;
787;SDS011;16074;42.708;23.312;2023-11-22T06:36:50;44.45;;;36.22;;
787;SDS011;16074;42.708;23.312;2023-11-22T06:39:19;39.75;;;33.63;;
787;SDS011;16074;42.708;23.312;2023-11-22T06:41:49;36.55;;;32.65;;
787;SDS011;16074;42.708;23.312;2023-11-22T06:44:17;40.50;;;33.45;;
787;SDS011;16074;42.708;23.312;2023-11-22T06:46:45;36.40;;;32.50;;
787;SDS011;16074;42.708;23.312;2023-11-22T06:49:14;44.38;;;37.13;;
787;SDS011;16074;42.708;23.312;2023-11-22T06:51:44;40.15;;;33.95;;
787;SDS011;16074;42.708;23.312;2023-11-22T06:54:12;38.97;;;34.13;;
787;SDS011;16074;42.708;23.312;2023-11-22T06:56:40;35.78;;;31.88;;
787;SDS011;16074;42.708;23.312;2023-11-22T06:59:08;36.72;;;32.70;;
787;SDS011;16074;42.708;23.312;2023-11-22T07:01:37;38.13;;;32.55;;
787;SDS011;16074;42.708;23.312;2023-11-22T07:04:06;35.03;;;31.33;;
787;SDS011;16074;42.708;23.312;2023-11-22T07:06:35;41.70;;;33.75;;
787;SDS011;16074;42.708;23.312;2023-11-22T07:09:05;39.35;;;31.70;;
787;SDS011;16074;42.708;23.312;2023-11-22T07:11:36;38.50;;;32.92;;
787;SDS011;16074;42.708;23.312;2023-11-22T07:14:04;37.65;;;33.65;;
787;SDS011;16074;42.708;23.312;2023-11-22T07:16:33;39.15;;;35.00;;
787;SDS011;16074;42.708;23.312;2023-11-22T07:19:01;40.97;;;34.42;;
787;SDS011;16074;42.708;23.312;2023-11-22T07:21:30;36.88;;;32.80;;
787;SDS011;16074;42.708;23.312;2023-11-22T07:23:58;40.08;;;35.78;;
787;SDS011;16074;42.708;23.312;2023-11-22T07:26:28;37.63;;;33.63;;
787;SDS011;16074;42.708;23.312;2023-11-22T07:28:57;36.05;;;32.10;;
787;SDS011;16074;42.708;23.312;2023-11-22T07:31:25;56.60;;;33.67;;
787;SDS011;16074;42.708;23.312;2023-11-22T07:33:53;39.90;;;30.20;;
787;SDS011;16074;42.708;23.312;2023-11-22T07:36:22;35.45;;;28.70;;
787;SDS011;16074;42.708;23.312;2023-11-22T07:38:51;32.85;;;29.35;;
787;SDS011;16074;42.708;23.312;2023-11-22T07:41:20;32.45;;;28.95;;
787;SDS011;16074;42.708;23.312;2023-11-22T07:43:50;34.28;;;30.55;;
787;SDS011;16074;42.708;23.312;2023-11-22T07:46:18;37.65;;;33.05;;
787;SDS011;16074;42.708;23.312;2023-11-22T07:48:47;35.55;;;31.63;;
787;SDS011;16074;42.708;23.312;2023-11-22T07:51:16;36.95;;;32.92;;
787;SDS011;16074;42.708;23.312;2023-11-22T07:53:44;38.15;;;34.15;;
787;SDS011;16074;42.708;23.312;2023-11-22T07:56:13;41.47;;;34.60;;
787;SDS011;16074;42.708;23.312;2023-11-22T07:58:44;42.33;;;35.35;;
787;SDS011;16074;42.708;23.312;2023-11-22T08:01:13;43.83;;;36.60;;
787;SDS011;16074;42.708;23.312;2023-11-22T08:03:42;41.30;;;36.80;;
787;SDS011;16074;42.708;23.312;2023-11-22T08:06:16;42.78;;;37.35;;
787;SDS011;16074;42.708;23.312;2023-11-22T08:08:44;49.38;;;37.90;;
787;SDS011;16074;42.708;23.312;2023-11-22T08:11:13;58.92;;;37.92;;
787;SDS011;16074;42.708;23.312;2023-11-22T08:13:42;49.40;;;40.33;;
787;SDS011;16074;42.708;23.312;2023-11-22T08:16:13;35.15;;;29.67;;
787;SDS011;16074;42.708;23.312;2023-11-22T08:18:42;29.60;;;26.50;;
787;SDS011;16074;42.708;23.312;2023-11-22T08:21:10;31.27;;;26.10;;
787;SDS011;16074;42.708;23.312;2023-11-22T08:23:39;28.83;;;25.90;;
787;SDS011;16074;42.708;23.312;2023-11-22T08:26:07;25.92;;;23.30;;
787;SDS011;16074;42.708;23.312;2023-11-22T08:28:36;28.55;;;24.73;;
787;SDS011;16074;42.708;23.312;2023-11-22T08:31:04;26.55;;;23.75;;
787;SDS011;16074;42.708;23.312;2023-11-22T08:33:38;30.15;;;27.08;;
787;SDS011;16074;42.708;23.312;2023-11-22T08:36:07;30.63;;;25.70;;
787;SDS011;16074;42.708;23.312;2023-11-22T08:38:36;29.67;;;26.33;;
787;SDS011;16074;42.708;23.312;2023-11-22T08:41:08;39.75;;;27.80;;
787;SDS011;16074;42.708;23.312;2023-11-22T08:43:40;30.98;;;27.40;;
787;SDS011;16074;42.708;23.312;2023-11-22T08:46:08;31.45;;;28.05;;
787;SDS011;16074;42.708;23.312;2023-11-22T08:48:42;32.20;;;28.40;;
787;SDS011;16074;42.708;23.312;2023-11-22T08:51:10;30.83;;;25.90;;
787;SDS011;16074;42.708;23.312;2023-11-22T08:53:39;30.80;;;26.75;;
787;SDS011;16074;42.708;23.312;2023-11-22T08:56:08;29.98;;;26.92;;
787;SDS011;16074;42.708;23.312;2023-11-22T08:58:36;28.52;;;25.52;;
787;SDS011;16074;42.708;23.312;2023-11-22T09:01:05;29.70;;;25.50;;
787;SDS011;16074;42.708;23.312;2023-11-22T09:03:34;32.22;;;25.95;;
787;SDS011;16074;42.708;23.312;2023-11-22T09:06:05;32.13;;;26.33;;
787;SDS011;16074;42.708;23.312;2023-11-22T09:08:34;33.20;;;25.40;;
787;SDS011;16074;42.708;23.312;2023-11-22T09:11:03;27.90;;;21.55;;
787;SDS011;16074;42.708;23.312;2023-11-22T09:13:33;30.25;;;24.90;;
787;SDS011;16074;42.708;23.312;2023-11-22T09:16:02;27.77;;;24.83;;
787;SDS011;16074;42.708;23.312;2023-11-22T09:18:32;26.08;;;22.10;;
787;SDS011;16074;42.708;23.312;2023-11-22T09:21:01;25.40;;;21.88;;
787;SDS011;16074;42.708;23.312;2023-11-22T09:23:31;23.92;;;21.25;;
787;SDS011;16074;42.708;23.312;2023-11-22T09:25:59;25.85;;;23.02;;
787;SDS011;16074;42.708;23.312;2023-11-22T09:28:28;26.08;;;23.33;;
787;SDS011;16074;42.708;23.312;2023-11-22T09:30:57;24.83;;;22.20;;
787;SDS011;16074;42.708;23.312;2023-11-22T09:33:33;26.08;;;23.30;;
787;SDS011;16074;42.708;23.312;2023-11-22T09:36:01;26.95;;;23.13;;
787;SDS011;16074;42.708;23.312;2023-11-22T09:38:37;26.58;;;23.83;;
787;SDS011;16074;42.708;23.312;2023-11-22T09:41:05;24.63;;;22.17;;
787;SDS011;16074;42.708;23.312;2023-11-22T09:43:34;26.52;;;23.58;;
787;SDS011;16074;42.708;23.312;2023-11-22T09:46:03;26.35;;;23.50;;
787;SDS011;16074;42.708;23.312;2023-11-22T09:48:31;30.50;;;25.67;;
787;SDS011;16074;42.708;23.312;2023-11-22T09:51:01;32.63;;;26.30;;
787;SDS011;16074;42.708;23.312;2023-11-22T09:53:33;34.58;;;28.10;;
787;SDS011;16074;42.708;23.312;2023-11-22T09:56:09;31.58;;;27.48;;
787;SDS011;16074;42.708;23.312;2023-11-22T09:58:40;29.00;;;25.13;;
787;SDS011;16074;42.708;23.312;2023-11-22T10:01:11;30.17;;;25.88;;
787;SDS011;16074;42.708;23.312;2023-11-22T10:03:40;30.85;;;27.15;;
787;SDS011;16074;42.708;23.312;2023-11-22T10:06:09;38.05;;;27.17;;
787;SDS011;16074;42.708;23.312;2023-11-22T10:08:37;25.63;;;22.15;;
787;SDS011;16074;42.708;23.312;2023-11-22T10:11:06;29.30;;;23.08;;
787;SDS011;16074;42.708;23.312;2023-11-22T10:13:36;27.25;;;22.45;;
787;SDS011;16074;42.708;23.312;2023-11-22T10:16:08;26.25;;;23.33;;
787;SDS011;16074;42.708;23.312;2023-11-22T10:18:42;24.55;;;21.95;;
787;SDS011;16074;42.708;23.312;2023-11-22T10:21:20;26.75;;;23.23;;
787;SDS011;16074;42.708;23.312;2023-11-22T10:23:51;27.52;;;23.98;;
787;SDS011;16074;42.708;23.312;2023-11-22T10:26:26;25.98;;;23.27;;
787;SDS011;16074;42.708;23.312;2023-11-22T10:28:57;27.42;;;22.58;;
787;SDS011;16074;42.708;23.312;2023-11-22T10:31:26;24.00;;;21.35;;
787;SDS011;16074;42.708;23.312;2023-11-22T10:33:55;25.35;;;22.75;;
787;SDS011;16074;42.708;23.312;2023-11-22T10:36:25;23.75;;;21.27;;
787;SDS011;16074;42.708;23.312;2023-11-22T10:38:54;26.10;;;23.40;;
787;SDS011;16074;42.708;23.312;2023-11-22T10:41:24;25.50;;;22.83;;
787;SDS011;16074;42.708;23.312;2023-11-22T10:43:54;23.85;;;21.17;;
787;SDS011;16074;42.708;23.312;2023-11-22T10:46:26;25.67;;;22.10;;
787;SDS011;16074;42.708;23.312;2023-11-22T10:48:57;25.10;;;22.50;;
787;SDS011;16074;42.708;23.312;2023-11-22T10:51:26;24.52;;;22.20;;
787;SDS011;16074;42.708;23.312;2023-11-22T10:53:59;25.40;;;22.70;;
787;SDS011;16074;42.708;23.312;2023-11-22T10:56:32;25.98;;;23.35;;
787;SDS011;16074;42.708;23.312;2023-11-22T10:59:09;25.73;;;23.13;;
787;SDS011;16074;42.708;23.312;2023-11-22T11:01:43;29.20;;;22.48;;
787;SDS011;16074;42.708;23.312;2023-11-22T11:04:16;27.17;;;23.70;;
787;SDS011;16074;42.708;23.312;2023-11-22T11:06:51;39.05;;;32.40;;
787;SDS011;16074;42.708;23.312;2023-11-22T11:09:22;30.58;;;25.90;;
787;SDS011;16074;42.708;23.312;2023-11-22T11:11:56;27.33;;;24.33;;
787;SDS011;16074;42.708;23.312;2023-11-22T11:14:26;43.45;;;26.85;;
787;SDS011;16074;42.708;23.312;2023-11-22T11:16:56;28.00;;;25.00;;
787;SDS011;16074;42.708;23.312;2023-11-22T11:19:25;29.10;;;26.00;;
787;SDS011;16074;42.708;23.312;2023-11-22T11:21:54;29.77;;;26.92;;
787;SDS011;16074;42.708;23.312;2023-11-22T11:24:25;29.55;;;26.52;;
787;SDS011;16074;42.708;23.312;2023-11-22T11:26:53;29.30;;;26.10;;
787;SDS011;16074;42.708;23.312;2023-11-22T11:29:31;30.30;;;26.60;;
787;SDS011;16074;42.708;23.312;2023-11-22T11:32:03;28.10;;;23.17;;
787;SDS011;16074;42.708;23.312;2023-11-22T11:34:32;27.13;;;24.50;;
787;SDS011;16074;42.708;23.312;2023-11-22T11:37:15;25.20;;;22.63;;
787;SDS011;16074;42.708;23.312;2023-11-22T11:39:45;25.45;;;22.60;;
787;SDS011;16074;42.708;23.312;2023-11-22T11:42:14;29.58;;;23.00;;
787;SDS011;16074;42.708;23.312;2023-11-22T11:45:02;24.40;;;21.88;;
787;SDS011;16074;42.708;23.312;2023-11-22T11:47:35;25.08;;;22.50;;
787;SDS011;16074;42.708;23.312;2023-11-22T11:50:03;26.23;;;22.63;;
787;SDS011;16074;42.708;23.312;2023-11-22T11:52:33;26.10;;;23.55;;
787;SDS011;16074;42.708;23.312;2023-11-22T11:55:02;29.38;;;26.20;;
787;SDS011;16074;42.708;23.312;2023-11-22T11:57:31;23.23;;;20.70;;
787;SDS011;16074;42.708;23.312;2023-11-22T12:00:00;22.50;;;20.08;;
787;SDS011;16074;42.708;23.312;2023-11-22T12:02:38;21.98;;;19.73;;
787;SDS011;16074;42.708;23.312;2023-11-22T12:05:07;21.85;;;19.80;;
787;SDS011;16074;42.708;23.312;2023-11-22T12:07:36;19.90;;;18.08;;
787;SDS011;16074;42.708;23.312;2023-11-22T12:10:05;20.75;;;18.88;;
787;SDS011;16074;42.708;23.312;2023-11-22T12:12:34;19.85;;;17.80;;
787;SDS011;16074;42.708;23.312;2023-11-22T12:15:03;21.73;;;18.73;;
787;SDS011;16074;42.708;23.312;2023-11-22T12:17:33;19.23;;;17.33;;
787;SDS011;16074;42.708;23.312;2023-11-22T12:20:11;20.58;;;18.58;;
787;SDS011;16074;42.708;23.312;2023-11-22T12:22:42;19.85;;;17.75;;
787;SDS011;16074;42.708;23.312;2023-11-22T12:25:10;20.77;;;18.50;;
787;SDS011;16074;42.708;23.312;2023-11-22T12:27:39;19.10;;;17.27;;
787;SDS011;16074;42.708;23.312;2023-11-22T12:30:08;17.58;;;15.65;;
787;SDS011;16074;42.708;23.312;2023-11-22T12:32:38;19.80;;;17.80;;
787;SDS011;16074;42.708;23.312;2023-11-22T12:35:08;19.10;;;17.25;;
787;SDS011;16074;42.708;23.312;2023-11-22T12:37:39;23.77;;;17.88;;
787;SDS011;16074;42.708;23.312;2023-11-22T12:40:11;24.27;;;20.50;;
787;SDS011;16074;42.708;23.312;2023-11-22T12:42:47;26.73;;;19.67;;
787;SDS011;16074;42.708;23.312;2023-11-22T12:45:20;27.02;;;21.52;;
787;SDS011;16074;42.708;23.312;2023-11-22T12:47:51;21.48;;;19.27;;
787;SDS011;16074;42.708;23.312;2023-11-22T12:50:32;27.45;;;19.85;;
787;SDS011;16074;42.708;23.312;2023-11-22T12:53:08;22.08;;;18.55;;
787;SDS011;16074;42.708;23.312;2023-11-22T12:55:41;20.02;;;17.42;;
787;SDS011;16074;42.708;23.312;2023-11-22T12:58:10;19.65;;;17.02;;
787;SDS011;16074;42.708;23.312;2023-11-22T13:00:39;19.80;;;17.63;;
787;SDS011;16074;42.708;23.312;2023-11-22T13:03:08;19.08;;;17.15;;
787;SDS011;16074;42.708;23.312;2023-11-22T13:05:37;21.30;;;17.60;;
787;SDS011;16074;42.708;23.312;2023-11-22T13:08:06;19.65;;;17.10;;
787;SDS011;16074;42.708;23.312;2023-11-22T13:10:39;19.75;;;17.70;;
787;SDS011;16074;42.708;23.312;2023-11-22T13:13:07;36.75;;;19.10;;
787;SDS011;16074;42.708;23.312;2023-11-22T13:15:36;20.15;;;17.92;;
787;SDS011;16074;42.708;23.312;2023-11-22T13:18:05;19.65;;;17.77;;
787;SDS011;16074;42.708;23.312;2023-11-22T13:20:33;19.45;;;17.52;;
787;SDS011;16074;42.708;23.312;2023-11-22T13:23:01;19.85;;;17.80;;
787;SDS011;16074;42.708;23.312;2023-11-22T13:25:30;20.60;;;17.55;;
787;SDS011;16074;42.708;23.312;2023-11-22T13:27:59;19.90;;;17.98;;
787;SDS011;16074;42.708;23.312;2023-11-22T13:30:28;20.30;;;18.20;;
787;SDS011;16074;42.708;23.312;2023-11-22T13:32:56;20.00;;;17.75;;
787;SDS011;16074;42.708;23.312;2023-11-22T13:35:25;18.80;;;16.98;;
787;SDS011;16074;42.708;23.312;2023-11-22T13:37:57;17.35;;;15.40;;
787;SDS011;16074;42.708;23.312;2023-11-22T13:40:27;17.15;;;14.52;;
787;SDS011;16074;42.708;23.312;2023-11-22T13:42:57;18.75;;;16.05;;
787;SDS011;16074;42.708;23.312;2023-11-22T13:45:27;17.30;;;12.85;;
787;SDS011;16074;42.708;23.312;2023-11-22T13:47:55;14.88;;;12.93;;
787;SDS011;16074;42.708;23.312;2023-11-22T13:50:30;13.23;;;11.82;;
787;SDS011;16074;42.708;23.312;2023-11-22T13:52:58;13.00;;;11.63;;
787;SDS011;16074;42.708;23.312;2023-11-22T13:55:27;14.13;;;12.68;;
787;SDS011;16074;42.708;23.312;2023-11-22T13:57:55;15.77;;;13.48;;
787;SDS011;16074;42.708;23.312;2023-11-22T14:00:27;14.30;;;11.45;;
787;SDS011;16074;42.708;23.312;2023-11-22T14:03:00;14.68;;;13.35;;
787;SDS011;16074;42.708;23.312;2023-11-22T14:05:34;15.05;;;13.52;;
787;SDS011;16074;42.708;23.312;2023-11-22T14:08:05;21.67;;;15.98;;
787;SDS011;16074;42.708;23.312;2023-11-22T14:10:34;17.85;;;16.05;;
787;SDS011;16074;42.708;23.312;2023-11-22T14:13:02;19.05;;;17.05;;
787;SDS011;16074;42.708;23.312;2023-11-22T14:15:33;18.33;;;16.42;;
787;SDS011;16074;42.708;23.312;2023-11-22T14:18:02;20.10;;;15.68;;
787;SDS011;16074;42.708;23.312;2023-11-22T14:20:31;17.75;;;15.85;;
787;SDS011;16074;42.708;23.312;2023-11-22T14:23:01;18.02;;;15.65;;
787;SDS011;16074;42.708;23.312;2023-11-22T14:25:30;18.88;;;16.92;;
787;SDS011;16074;42.708;23.312;2023-11-22T14:27:58;20.08;;;17.38;;
787;SDS011;16074;42.708;23.312;2023-11-22T14:30:27;20.10;;;18.05;;
787;SDS011;16074;42.708;23.312;2023-11-22T14:32:59;19.58;;;16.85;;
787;SDS011;16074;42.708;23.312;2023-11-22T14:35:27;19.63;;;17.52;;
787;SDS011;16074;42.708;23.312;2023-11-22T14:37:55;19.85;;;17.75;;
787;SDS011;16074;42.708;23.312;2023-11-22T14:40:25;19.95;;;17.50;;
787;SDS011;16074;42.708;23.312;2023-11-22T14:42:54;19.38;;;17.08;;
787;SDS011;16074;42.708;23.312;2023-11-22T14:45:23;20.13;;;18.15;;
787;SDS011;16074;42.708;23.312;2023-11-22T14:47:53;23.67;;;18.02;;